Flight Track Log - Related Links

Times and Time Zones

All times are in EDT time to prevent confusion due to time zone crossing. See the DAL3982 flight status page for this flight to view local times or setup timezone preferences in your user account.

Time Position Orientation Groundspeed Altitude Reporting Facility
EDT Latitude Longitude Course Direction KTS MPH feet Rate Location/Type
Mon 09:02:51 PM 33.6500 -84.4667 North 179 206 2,300  Level Atlanta TRACON
Mon 09:03:57 PM 33.6833 -84.5500 296° West 258 297 4,300 2,364 Climbing Atlanta TRACON
Mon 09:05:00 PM 33.8130 -84.1667 North  Level FlightAware Approximate
Mon 09:05:03 PM 33.7500 -84.5833 337° Northwest 283 326 7,500  Level Atlanta TRACON
Mon 09:06:00 PM 33.9058 -84.2391 320° Northwest  Level FlightAware Approximate
Mon 09:06:03 PM 33.8333 -84.5500 18° North 297 342 10,300  Level Atlanta TRACON
Mon 09:06:55 PM 33.8769 -84.4917 48° Northeast 312 359 11,200 1,500 Climbing Atlanta Center
Mon 09:07:00 PM 34.0121 -84.2667 North  Level FlightAware Approximate
Mon 09:07:55 PM 33.9439 -84.3994 49° Northeast 356 410 13,100  Level Atlanta Center
Mon 09:08:00 PM 34.1267 -84.2667 North  Level FlightAware Approximate
Mon 09:08:55 PM 34.0358 -84.3647 17° North 351 404 14,600  Level Atlanta Center
Mon 09:09:55 PM 34.1528 -84.3275 15° North 365 420 16,300 1,800 Climbing Atlanta Center
Mon 09:10:55 PM 34.2636 -84.2925 15° North 407 468 18,200 1,800 Climbing Atlanta Center
Mon 09:11:55 PM 34.3742 -84.2628 13° North 407 468 19,900 1,450 Climbing Atlanta Center
Mon 09:12:55 PM 34.4911 -84.2353 11° North 412 474 21,100 1,250 Climbing Atlanta Center
Mon 09:13:55 PM 34.6081 -84.2053 12° North 422 486 22,400 1,250 Climbing Atlanta Center
Mon 09:14:55 PM 34.7125 -84.1853 North 422 486 23,600 1,100 Climbing Atlanta Center
Mon 09:15:55 PM 34.8336 -84.1553 11° North 432 497 24,600 1,000 Climbing Atlanta Center
Mon 09:16:55 PM 34.9567 -84.1250 11° North 437 503 25,600 1,050 Climbing Atlanta Center
Mon 09:17:55 PM 35.0819 -84.0947 11° North 449 517 26,700 1,000 Climbing Atlanta Center
Mon 09:18:55 PM 35.2092 -84.0667 10° North 454 522 27,600 1,100 Climbing Atlanta Center
Mon 09:19:55 PM 35.3344 -84.0336 12° North 454 522 28,900 1,300 Climbing Atlanta Center
Mon 09:20:55 PM 35.4575 -84.0031 11° North 454 522 30,200 1,150 Climbing Atlanta Center
Mon 09:21:55 PM 35.5828 -83.9750 10° North 449 517 31,200 1,000 Climbing Atlanta Center
Mon 09:22:55 PM 35.7078 -83.9442 11° North 449 517 32,200 1,000 Climbing Atlanta Center
Mon 09:23:55 PM 35.8308 -83.9158 11° North 449 517 33,200 1,000 Climbing Atlanta Center
Mon 09:24:55 PM 35.9517 -83.8669 18° North 449 517 34,200 900 Climbing Atlanta Center
Mon 09:25:55 PM 36.0622 -83.7972 27° Northeast 443 510 35,000 400 Climbing Atlanta Center
Mon 09:26:55 PM 36.1747 -83.7275 27° Northeast 443 510 35,000  Level Atlanta Center
Mon 09:28:39 PM 36.3681 -83.6008 28° Northeast 450 518 35,000  Level Indianapolis Center
Mon 09:29:40 PM 36.4819 -83.5281 27° Northeast 458 527 35,000  Level Indianapolis Center
Mon 09:30:41 PM 36.6075 -83.4503 26° Northeast 461 531 35,000  Level Indianapolis Center
Mon 09:31:42 PM 36.7214 -83.3775 27° Northeast 457 526 35,000  Level Indianapolis Center
Mon 09:32:44 PM 36.8356 -83.3033 27° Northeast 456 525 35,000  Level Indianapolis Center
Mon 09:33:45 PM 36.9508 -83.2297 27° Northeast 459 528 35,000  Level Indianapolis Center
Mon 09:34:46 PM 37.0656 -83.1547 28° Northeast 458 527 35,000  Level Indianapolis Center
Mon 09:35:47 PM 37.1817 -83.0789 27° Northeast 464 534 35,000  Level Indianapolis Center
Mon 09:36:48 PM 37.2950 -83.0039 28° Northeast 460 529 35,000  Level Indianapolis Center
Mon 09:37:50 PM 37.4089 -82.9286 28° Northeast 461 531 35,000  Level Indianapolis Center
Mon 09:38:51 PM 37.5222 -82.8544 27° Northeast 459 528 35,000  Level Indianapolis Center
Mon 09:39:52 PM 37.6353 -82.7817 27° Northeast 456 525 35,000  Level Indianapolis Center
Mon 09:40:53 PM 37.7478 -82.7061 28° Northeast 455 524 35,000  Level Indianapolis Center
Mon 09:41:54 PM 37.8597 -82.6314 28° Northeast 454 522 35,000  Level Indianapolis Center
Mon 09:42:56 PM 37.9900 -82.5444 28° Northeast 453 521 35,000  Level Indianapolis Center
Mon 09:43:57 PM 38.1008 -82.4694 28° Northeast 453 521 35,000  Level Indianapolis Center
Mon 09:44:58 PM 38.2131 -82.3931 28° Northeast 454 522 35,000  Level Indianapolis Center
Mon 09:45:59 PM 38.3244 -82.3189 28° Northeast 451 519 35,000  Level Indianapolis Center
Mon 09:47:00 PM 38.4358 -82.2433 28° Northeast 452 520 35,000  Level Indianapolis Center
Mon 09:48:02 PM 38.5486 -82.1669 28° Northeast 455 524 35,000  Level Indianapolis Center
Mon 09:49:03 PM 38.6614 -82.0908 28° Northeast 455 524 35,000  Level Indianapolis Center
Mon 09:50:04 PM 38.7742 -82.0106 29° Northeast 458 527 35,000  Level Indianapolis Center
Mon 09:51:05 PM 38.8836 -81.9175 33° Northeast 464 534 35,000  Level Indianapolis Center
Mon 09:52:06 PM 38.9925 -81.8256 33° Northeast 464 534 35,000  Level Indianapolis Center
Mon 09:53:08 PM 39.1006 -81.7325 34° Northeast 462 532 35,000  Level Indianapolis Center
Mon 09:54:09 PM 39.2106 -81.6394 33° Northeast 469 540 35,000  Level Indianapolis Center
Mon 09:55:10 PM 39.3186 -81.5464 34° Northeast 466 536 35,000  Level Indianapolis Center
Mon 09:56:11 PM 39.4253 -81.4533 34° Northeast 462 532 35,000  Level Indianapolis Center
Mon 09:58:00 PM 39.5609 -81.3214 37° Northeast  Level FlightAware Approximate
Mon 09:58:14 PM 39.6344 -81.2544 37° Northeast 467 537 35,000  Level Indianapolis Center
Mon 09:58:33 PM 39.6861 -81.2008 39° Northeast 475 547 35,000  Level Cleveland Center
Mon 09:59:33 PM 39.7847 -81.0908 41° Northeast 468 539 35,000  Level Cleveland Center
Mon 10:00:34 PM 39.8831 -80.9836 40° Northeast 468 539 35,000  Level Cleveland Center
Mon 10:01:33 PM 39.9833 -80.8731 40° Northeast 463 533 35,000  Level Cleveland Center
Mon 10:02:33 PM 40.0794 -80.7647 41° Northeast 463 533 35,000  Level Cleveland Center
Mon 10:03:33 PM 40.1775 -80.6564 40° Northeast 457 526 35,000  Level Cleveland Center
Mon 10:04:34 PM 40.2756 -80.5478 40° Northeast 457 526 35,000  Level Cleveland Center
Mon 10:05:34 PM 40.3736 -80.4358 41° Northeast 457 526 35,000  Level Cleveland Center
Mon 10:06:33 PM 40.4692 -80.3267 41° Northeast 452 520 35,000  Level Cleveland Center
Mon 10:07:33 PM 40.5669 -80.2197 40° Northeast 452 520 35,000  Level Cleveland Center
Mon 10:08:33 PM 40.6644 -80.1069 41° Northeast 452 520 35,000  Level Cleveland Center
Mon 10:09:33 PM 40.7597 -79.9964 41° Northeast 452 520 35,000  Level Cleveland Center
Mon 10:10:33 PM 40.8531 -79.8886 41° Northeast 463 533 35,000  Level Cleveland Center
Mon 10:11:33 PM 40.9461 -79.7806 41° Northeast 463 533 35,000  Level Cleveland Center
Mon 10:12:34 PM 41.0453 -79.6664 41° Northeast 463 533 35,000  Level Cleveland Center
Mon 10:13:34 PM 41.1425 -79.5547 41° Northeast 463 533 35,000  Level Cleveland Center
Mon 10:14:34 PM 41.2392 -79.4400 42° Northeast 463 533 35,000  Level Cleveland Center
Mon 10:15:34 PM 41.3361 -79.3275 41° Northeast 463 533 35,000  Level Cleveland Center
Mon 10:16:33 PM 41.4411 -79.2039 41° Northeast 463 533 35,000  Level Cleveland Center
Mon 10:17:34 PM 41.5375 -79.0908 41° Northeast 463 533 35,000  Level Cleveland Center
Mon 10:18:33 PM 41.6319 -78.9775 42° Northeast 463 533 35,000  Level Cleveland Center
Mon 10:19:33 PM 41.7242 -78.8667 42° Northeast 458 527 35,000  Level Cleveland Center
Mon 10:20:33 PM 41.8203 -78.7525 41° Northeast 458 527 35,000  Level Cleveland Center
Mon 10:21:34 PM 41.9144 -78.6383 42° Northeast 453 521 35,000  Level Cleveland Center
Mon 10:22:33 PM 42.0083 -78.5264 42° Northeast 453 521 35,000  Level Cleveland Center
Mon 10:23:33 PM 42.1042 -78.4114 42° Northeast 453 521 35,000  Level Cleveland Center
Mon 10:24:33 PM 42.1978 -78.2961 42° Northeast 453 521 35,000  Level Cleveland Center
Mon 10:25:33 PM 42.2914 -78.1861 41° Northeast 453 521 35,000  Level Cleveland Center
Mon 10:26:33 PM 42.3828 -78.0700 43° Northeast 453 521 35,000  Level Cleveland Center
Mon 10:27:33 PM 42.4761 -77.9539 43° Northeast 453 521 35,000  Level Cleveland Center
Mon 10:28:34 PM 42.5672 -77.8428 42° Northeast 448 516 35,000  Level Cleveland Center
Mon 10:29:33 PM 42.6525 -77.7403 41° Northeast 448 516 35,000  Level Cleveland Center
Mon 10:30:34 PM 42.7433 -77.6231 43° Northeast 448 516 35,000  Level Cleveland Center
Mon 10:31:33 PM 42.8361 -77.5083 42° Northeast 449 517 35,000  Level Cleveland Center
Mon 10:33:37 PM 43.0344 -77.2558 43° Northeast 434 499 35,000  Level Boston Center
Mon 10:34:37 PM 43.1247 -77.1406 43° Northeast 440 506 35,000  Level Boston Center
Mon 10:35:37 PM 43.2169 -77.0250 42° Northeast 440 506 35,000  Level Boston Center
Mon 10:36:37 PM 43.3092 -76.9092 42° Northeast 440 506 35,000  Level Boston Center
Mon 10:37:35 PM 43.3833 -76.8000 47° Northeast 460 529 35,000 -51 Level Montreal Center
Mon 10:38:35 PM 43.4833 -76.6833 40° Northeast 460 529 34,900 -600 Descending Montreal Center
Mon 10:39:35 PM 43.5833 -76.5500 44° Northeast 450 518 33,800 -1,000 Descending Montreal Center
Mon 10:40:35 PM 43.6667 -76.4333 45° Northeast 450 518 32,900 -950 Descending Montreal Center
Mon 10:41:35 PM 43.7500 -76.3167 45° Northeast 460 529 31,900 -1,000 Descending Montreal Center
Mon 10:42:35 PM 43.8500 -76.1833 44° Northeast 470 541 30,900 -1,000 Descending Montreal Center
Mon 10:43:35 PM 43.9333 -76.0667 45° Northeast 460 529 29,900 -1,050 Descending Montreal Center
Mon 10:44:35 PM 44.0333 -75.9500 40° Northeast 460 529 28,800 -950 Descending Montreal Center
Mon 10:45:35 PM 44.1167 -75.8333 45° Northeast 450 518 28,000 -400 Descending Montreal Center
Mon 10:46:35 PM 44.2167 -75.7167 40° Northeast 450 518 28,000  Level Montreal Center
Mon 10:47:35 PM 44.3167 -75.6000 40° Northeast 450 518 28,000  Level Montreal Center
Mon 10:48:35 PM 44.4000 -75.4500 52° Northeast 460 529 28,000  Level Montreal Center
Mon 10:49:35 PM 44.5000 -75.3333 40° Northeast 450 518 28,000  Level Montreal Center
Mon 10:50:35 PM 44.6000 -75.2167 40° Northeast 460 529 28,000  Level Montreal Center
Mon 10:51:35 PM 44.6833 -75.1000 45° Northeast 450 518 28,000 -400 Level Montreal Center
Mon 10:52:35 PM 44.7833 -74.9833 40° Northeast 450 518 27,200 -1,650 Descending Montreal Center
Mon 10:53:35 PM 44.8667 -74.8500 49° Northeast 460 529 24,700 -2,450 Descending Montreal Center
Mon 10:54:35 PM 44.9500 -74.7333 45° Northeast 450 518 22,300 -2,550 Descending Montreal Center
Mon 10:55:35 PM 45.0500 -74.6167 39° Northeast 440 506 19,600 -2,350 Descending Montreal Center
Mon 10:56:35 PM 45.1333 -74.5000 45° Northeast 430 495 17,600 -2,050 Descending Montreal Center
Mon 10:57:35 PM 45.2167 -74.3833 45° Northeast 400 460 15,500 -2,150 Descending Montreal Center
Mon 10:58:35 PM 45.2667 -74.2500 62° Northeast 390 449 13,300 -2,300 Descending Montreal Center
Mon 10:59:35 PM 45.3333 -74.1333 51° Northeast 370 426 10,900 -1,750 Descending Montreal Center
Mon 11:00:35 PM 45.3833 -74.0333 55° Northeast 310 357 9,800 -1,600 Descending Montreal Center
Mon 11:01:35 PM 45.4333 -73.9667 43° Northeast 290 334 7,700 -1,900 Descending Montreal Center
Mon 11:02:35 PM 45.5000 -73.8667 46° Northeast 290 334 6,000 -850 Descending Montreal Center
Mon 11:03:35 PM 45.5500 -73.7833 49° Northeast 280 322 6,000 -550 Level Montreal Center
Mon 11:04:35 PM 45.6000 -73.7167 43° Northeast 260 299 4,900 -1,250 Descending Montreal Center
Mon 11:05:35 PM 45.6333 -73.6500 54° Northeast 220 253 3,500 -950 Descending Montreal Center
Mon 11:06:35 PM 45.6000 -73.5667 120° Southeast 190 219 3,000 -450 Descending Montreal Center
Mon 11:07:35 PM 45.5500 -73.6167 215° Southwest 180 207 2,600 -700 Descending Montreal Center
Mon 11:08:35 PM 45.5167 -73.6500 215° Southwest 160 184 1,600 -900 Descending Montreal Center
Mon 11:09:35 PM 45.5000 -73.7000 245° Southwest 140 161 800 -750 Descending Montreal Center
Mon 11:10:35 PM 45.4667 -73.7167 199° South 120 138 100 -350 Descending Montreal Center
Mon 11:11:35 PM 45.4500 -73.7500 235° Southwest 30 35 100  Level Montreal Center

Login

Don't have an account? Register now (free) for customized features, flight alerts, and more!